x

8452951 - Potter Cove, Prudence Island, Ri (ptcr1) Weather Station

5:54 - Thu 26th May 2016 All times are EDT. -4 hours from GMT.

  • Wind
    2mph
  • Aire Temp 63°f
  • Sea Pressure 1018.9mb
  • 8452951 - Potter Cove, Prudence Island, Ri
  • 8452951 - Potter Cove, Prudence Island, Ri

More Historic Weather Station data

Upgrade to MSW Pro to gain access to the past 30 days of data for over 8000 Wavebouys and Weather Stations around the globe.

Join Pro

Comparision Forecast

View Surf forecast
   
jue 05/26 5:54 2
mph
1018.9mb 63f
5:48  -  1 mph 1018.9mb 63f
5:42 2 3 mph 1018.9mb 62f
5:36  -  1 mph 1018.8mb 64f
5:30 2
mph
1018.7mb 63f
5:24  -  mph 1018.6mb 63f
5:18  -  1 mph 1018.6mb 63f
5:12 2
mph
1018.6mb 63f
5:06 2
mph
1018.5mb 62f
5:00  -  1 mph 1018.4mb 62f
4:54 1 2 mph 1018.5mb 62f
4:48 2 5 mph 1018.4mb 61f
4:42 2 3 mph 1018.3mb 62f
4:36 2 3 mph 1018.3mb 63f
4:30 3 5 mph 1018.2mb 63f
4:24 3 7 mph 1018.1mb 64f
4:18 5 8 mph 1018mb 63f
4:12 3 6 mph 1017.8mb 63f
4:06  -  1 mph 1017.8mb 63f
4:00 1 2 mph 1017.7mb 65f
3:54 1 2 mph 1017.7mb 65f
3:48 5 7 mph 1017.7mb 63f
3:42 2 3 mph 1017.7mb 63f
3:36 3 5 mph 1017.6mb 66f
3:30 3 5 mph 1017.6mb 65f
3:24 5 7 mph 1017.6mb 64f
3:18 3 5 mph 1017.6mb 63f
3:12 2 3 mph 1017.6mb 63f
3:06 3 6 mph 1017.6mb 64f
3:00 5 6 mph 1017.5mb 64f
2:54 3 6 mph 1017.5mb 64f
2:48 3 7 mph 1017.4mb 64f
2:42 3 5 mph 1017.3mb 64f
2:36 3 5 mph 1017.2mb 64f
2:30 3 5 mph 1017.2mb 64f
2:24 2 3 mph 1017.1mb 64f
2:18 2 5 mph 1017.1mb 64f
2:12 2 5 mph 1017.1mb 65f
2:06 3 5 mph 1017mb 66f
2:00 5 7 mph 1016.9mb 67f
1:54 5 7 mph 1017mb 67f
1:48 5 10 mph 1017mb 66f
1:42 3 6 mph 1017mb 65f
1:36 5 7 mph 1016.8mb 66f
1:30 3 6 mph 1016.8mb 66f
1:24 5 6 mph 1016.8mb 66f
1:18 3 5 mph 1016.8mb 65f
1:12 3 5 mph 1016.8mb 65f
1:06 2 5 mph 1016.9mb 66f
1:00 3 7 mph 1016.9mb 67f
12:54 5 9 mph 1016.8mb 68f
12:48 7 9 mph 1016.7mb 69f
12:42 7 9 mph 1016.8mb 69f
12:36 6 9 mph 1016.8mb 68f
12:30 6 8 mph 1016.9mb 68f
12:24 7 11 mph 1017mb 68f
12:18 7 10 mph 1016.9mb 67f
12:12 7 9 mph 1016.9mb 67f
12:06 7 9 mph 1016.9mb 68f
12:00 7 9 mph 1016.9mb 68f
mié 05/25 11:54 7 9 mph 1017mb 67f
11:48  -  mph 1017mb 67f
11:42  -  mph 1017mb 67f
11:36  -  mph 1017mb 68f
11:30 5 7 mph 1017mb 67f
11:24 3 7 mph 1017mb 68f
11:18  -  mph 1017mb 68f
11:12  -  mph 1017mb 69f
11:06  -  mph 1016.9mb 70f
11:00  -  mph - 70f
10:54  -  mph - 70f
10:48  -  mph - 70f
10:42  -  mph - 69f
10:36  -  mph 1016.9mb -
10:30 6 9 mph 1016.9mb -
10:24 5 8 mph 1016.9mb -
10:18  -  mph 1016.9mb 69f
10:12  -  mph 1016.9mb 69f
10:06  -  mph 1016.9mb 69f
10:00 5 7 mph 1016.9mb -
9:54 5 8 mph 1016.9mb -
9:48  -  mph 1016.8mb -
9:42  -  mph 1016.7mb -
9:36  -  mph 1016.7mb -
9:30 7 11 mph 1016.7mb -
9:24 6 9 mph 1016.6mb -
9:18 6 10 mph 1016.5mb -
9:12 6 8 mph 1016.5mb -
9:06 7 9 mph 1016.5mb -
9:00  -  mph 1016.6mb -
8:54  -  mph 1016.4mb -
8:48  -  mph 1016.2mb -
8:42  -  mph 1016.2mb -
8:36  -  mph 1016.1mb -
8:30 7 10 mph 1016.1mb -
8:24 7 10 mph 1016mb -
8:18  -  mph 1015.9mb 73f
8:12  -  mph 1015.9mb 75f
8:06  -  mph 1015.8mb 76f
8:00 8 13 mph 1015.7mb -
7:54 8 14 mph 1015.7mb -
7:48 8 13 mph - -
7:42 8 13 mph - -
7:36 8 11 mph - -
7:30 8 13 mph 1015.6mb -
7:24 9 15 mph 1015.6mb -
7:18  -  mph 1015.6mb 78f
7:12  -  mph 1015.6mb 79f
7:06  -  mph 1015.6mb 79f
7:00  -  mph 1015.5mb -
6:54  -  mph 1015.5mb -
6:48 7 11 mph 1015.4mb -
6:42 8 15 mph 1015.4mb -
6:36 7 11 mph 1015.5mb -
6:30 9 15 mph 1015.3mb -
6:24 7 11 mph 1015.3mb -
6:18 8 11 mph 1015.1mb 85f
6:12 7 11 mph 1015mb 85f
6:06 6 13 mph 1015mb 85f
6:00 5 8 mph 1015mb -
5:54 5 8 mph 1015.1mb -
5:48  -  mph 1015.2mb -
5:42  -  mph 1015.1mb -
5:36  -  mph 1015.1mb -
5:30 5 7 mph 1015.1mb 83f
5:24 3 7 mph 1015.1mb 80f
5:18 3 6 mph 1015.1mb 82f
5:12 2 7 mph 1015.1mb 84f
5:06 3 6 mph 1015.1mb 83f
5:00 3 7 mph 1015.1mb 83f
4:54 5 7 mph 1015.1mb 82f
4:48 5 8 mph 1015.2mb 83f
4:42 6 9 mph 1015.2mb 82f
4:36 3 7 mph 1015.2mb 81f
4:30 6 9 mph 1015.1mb 80f
4:24 3 8 mph 1015.2mb 81f
4:18 3 7 mph 1015.1mb 81f
4:12 3 8 mph 1015.1mb 81f
4:06 5 8 mph 1015.1mb 80f
4:00 3 9 mph 1015.1mb 80f
3:54 3 8 mph 1015.1mb 80f
3:48 5 7 mph 1015mb 80f
3:42 5 10 mph 1015.1mb 80f
3:36 3 9 mph 1015.1mb 80f
3:30 5 11 mph 1015mb 79f
3:24 5 8 mph 1015mb 80f
3:18 3 7 mph 1015.1mb 81f
3:12 5 8 mph 1015.3mb 82f
3:06 2 6 mph 1015.3mb 82f
3:00 3 7 mph 1015.4mb 82f
2:54 3 8 mph 1015.5mb 80f
2:48 5 8 mph 1015.5mb 79f
2:42 3 7 mph 1015.5mb 77f
2:36 2 7 mph 1015.5mb 79f
2:30 3 7 mph 1015.5mb 76f
2:24 5 9 mph 1015.5mb 76f
2:18 5 9 mph 1015.6mb 75f
2:12 5 10 mph 1015.6mb 76f
2:06 3 8 mph 1015.6mb 75f
2:00 5 10 mph 1015.6mb 75f
1:54 3 7 mph 1015.6mb 76f
1:48 3 7 mph 1015.6mb 75f
1:42 5 8 mph 1015.6mb 75f
1:36 5 8 mph 1015.6mb 73f
1:30 5 9 mph 1015.7mb 73f
1:24 5 9 mph 1015.9mb 72f
1:18 6 10 mph 1015.9mb 72f
1:12 6 8 mph 1016mb 71f
1:06 3 8 mph 1016mb 71f
1:00 3 7 mph 1016mb 71f
12:54 2 6 mph 1016.1mb 72f
12:48 3 6 mph 1016.2mb 73f
12:42 3 6 mph 1016.3mb 72f
12:36 2 5 mph 1016.2mb 71f
12:30 5 6 mph 1016.3mb 69f
12:24 1 5 mph 1016.3mb 70f
12:18 2 6 mph 1016.4mb 68f
12:12 5 8 mph 1016.5mb 69f
12:06 5 7 mph 1016.5mb 67f
12:00 3 6 mph 1016.6mb 67f
11:54 3 7 mph 1016.6mb 69f
11:48 2 6 mph 1016.7mb 69f
11:42 6 8 mph 1016.7mb 67f
11:36 6 8 mph 1016.7mb 67f
11:30 6 9 mph 1016.7mb 66f
11:24 6 8 mph 1016.7mb 66f
11:18 5 9 mph 1016.7mb 65f
11:12 7 10 mph 1016.8mb 64f
11:06 5 8 mph 1016.7mb 65f
11:00 5 9 mph 1016.7mb 64f
10:54 3 9 mph 1016.7mb 65f
10:48 5 8 mph 1016.7mb 66f
10:42 5 8 mph 1016.7mb 64f
10:36 6 9 mph 1016.8mb 64f
10:30 5 7 mph 1016.9mb 65f
10:24 5 9 mph 1016.8mb 64f
10:12 6 10 mph 1016.9mb 63f
10:06 6 11 mph 1016.9mb 62f
10:00 8 14 mph 1016.9mb 62f
9:54 6 13 mph 1016.9mb 62f
9:48 7 10 mph 1016.8mb 62f
9:42 7 11 mph 1016.7mb 62f
9:36 7 13 mph 1016.7mb 62f
9:30 7 11 mph 1016.7mb 62f
9:24 3 7 mph 1016.7mb 63f
9:18 5 9 mph 1016.7mb 63f
9:12 3 8 mph 1016.6mb 63f
9:06 5 9 mph 1016.7mb 62f
9:00 6 9 mph 1016.7mb 62f
8:54 3 8 mph 1016.8mb 62f
8:48 5 7 mph 1016.8mb 61f
8:42 6 8 mph 1016.7mb 60f
8:36 5 7 mph 1016.9mb 60f
8:30 3 8 mph 1016.9mb 60f
8:24 3 7 mph 1017.1mb 60f
8:18 3 6 mph 1017.1mb 60f
8:12 3 7 mph 1017.1mb 60f
8:06 3 7 mph 1017mb 59f
8:00 3 6 mph 1017.1mb 59f
7:54 3 7 mph 1017.1mb 59f
7:48 3 6 mph 1017mb 59f
7:42 5 7 mph 1017mb 58f
7:36 2 5 mph 1017mb 58f
7:30 3 7 mph 1016.9mb 58f
7:24 5 6 mph 1017mb 58f
7:18 3 7 mph 1017mb 58f
7:12 2 5 mph 1017mb 58f
7:06 3 5 mph 1017mb 58f
7:00 2 5 mph 1017mb 57f
6:54 3 5 mph 1017mb 57f
6:48 2 5 mph 1016.8mb 57f
6:42 1 3 mph 1016.8mb 57f
6:36 2 3 mph 1016.8mb 57f
6:30 1 2 mph 1016.7mb 57f
6:24  -  1 mph 1016.6mb 57f
6:18  -  1 mph 1016.5mb 56f
6:12 1 2 mph 1016.5mb 56f
6:06 2 3 mph 1016.5mb 55f
6:00 1 3 mph 1016.5mb 55f
5:54 2 3 mph 1016.4mb 55f
5:48 2 3 mph 1016.5mb 55f
5:42 1 3 mph 1016.6mb 54f
5:36 2 3 mph 1016.6mb 54f
5:30 2
mph
1016.6mb 53f
5:24 2
mph
1016.6mb 54f
5:18  -  1 mph 1016.5mb 55f
5:12 1 2 mph 1016.7mb 54f
5:06 2
mph
1016.7mb 54f
5:00  -  2 mph 1016.6mb 54f
4:54  -  1 mph 1016.6mb 54f
4:48  -  1 mph 1016.5mb 54f
4:42 2
mph
1016.6mb 55f
4:36 2
mph
1016.6mb 55f
4:30 1 2 mph 1016.7mb 55f
4:24 2 3 mph 1016.7mb 54f
4:18 2
mph
1016.5mb 54f
4:12 1 2 mph 1016.3mb 55f
4:06  -  1 mph 1016.2mb 55f
4:00  -  mph 1016.3mb 55f
3:54  -  1 mph 1016.4mb 55f
3:48  -  1 mph 1016.4mb 55f
3:42  -  mph 1016.3mb 55f
3:36  -  1 mph 1016.3mb 55f
3:30  -  1 mph 1016.3mb 55f
3:24  -  1 mph 1016mb 55f
3:18 1 2 mph 1016mb 55f
3:12 1
mph
1016mb 55f
3:06 1 2 mph 1016.1mb 55f
3:00  -  1 mph 1016.2mb 55f
2:54  -  mph 1016.1mb 55f
2:48  -  mph 1016mb 55f
2:42  -  mph 1015.9mb 55f
2:36  -  2 mph 1016mb 55f
2:30  -  1 mph 1016.2mb 55f
2:24 2
mph
1016mb 55f
2:18 2 3 mph 1015.8mb 55f
2:12 1 2 mph 1015.8mb 55f
2:06 2 5 mph 1015.7mb 55f
2:00 5 6 mph 1015.6mb 55f
1:54 2 6 mph 1015.5mb 55f
1:48 5 7 mph 1015.6mb 55f
1:42 3 5 mph 1015.6mb 55f
1:36 3 6 mph 1015.6mb 55f
1:30 3 6 mph 1015.6mb 55f
1:24 3 6 mph 1015.6mb 55f
1:18 5 6 mph 1015.6mb 55f
1:12 5 6 mph 1015.6mb 55f
1:06 3 6 mph 1015.7mb 55f
1:00 3 6 mph 1015.6mb 55f
12:54 5 6 mph 1015.8mb 55f
12:48 3 5 mph 1015.7mb 55f
12:42 3 5 mph 1015.6mb 55f
12:36 3 6 mph 1015.6mb 55f
12:30 3 5 mph 1015.6mb 55f
12:24 2 3 mph 1015.8mb 55f
12:18 5 7 mph 1015.7mb 55f
12:12 3 6 mph 1015.7mb 55f
12:06 3 5 mph 1015.6mb 55f
12:00 3 6 mph 1015.6mb 55f
mar 05/24 11:54 3 6 mph 1015.5mb 55f
11:48  -  mph 1015.5mb 55f
11:42  -  mph 1015.4mb 55f
11:36  -  mph 1015.5mb 55f
11:30 6 8 mph 1015.5mb 55f
11:24 7 11 mph 1015.5mb 56f
11:18  -  mph 1015.5mb 56f
11:12  -  mph 1015.5mb 56f
11:06  -  mph 1015.6mb 56f
11:00 6 9 mph 1015.5mb 56f
10:54 6 8 mph 1015.5mb 56f
10:48 6 8 mph - -
10:42 6 8 mph - -
10:36 6 7 mph - -
10:30 5 7 mph - -
10:24 5 7 mph - -
10:18  -  mph 1015.3mb 55f
10:12  -  mph 1015.2mb 55f
10:06  -  mph 1015.1mb 56f
10:00  -  mph 1015.1mb 56f
9:54  -  mph 1015.1mb 56f
9:48  -  mph 1015mb -
9:42  -  mph 1014.9mb -
9:36  -  mph 1015mb -
9:30 8 10 mph 1015.1mb -
9:24 7 11 mph 1015mb -
9:18  -  mph 1014.9mb 55f
9:12  -  mph 1014.9mb 55f
9:06  -  mph 1014.8mb 55f
9:00  -  mph 1014.7mb -
8:54  -  mph 1014.6mb -
8:48  -  mph 1014.5mb -
8:42  -  mph 1014.4mb -
8:36  -  mph 1014.3mb -
8:30 8 11 mph 1014.3mb 56f
8:24 8 11 mph 1014.3mb 55f
8:18  -  mph 1014.2mb 55f
8:12  -  mph 1014.1mb 56f
8:06  -  mph 1014.1mb 56f
8:00  -  mph 1014mb 56f
7:54  -  mph 1014mb 56f
7:48 8 11 mph - -
7:42 6 9 mph - -
7:36 7 10 mph - -
7:30  -  mph 1014.1mb -
7:24  -  mph 1014mb -
7:18  -  mph 1014mb 56f
7:12  -  mph 1013.9mb 56f
7:06  -  mph 1013.9mb 56f
7:00  -  mph 1013.9mb 56f
6:54  -  mph 1013.8mb 56f
6:48  -  mph 1013.8mb 56f
6:42  -  mph 1013.8mb 56f
6:36  -  mph 1013.7mb 57f
6:30 9 13 mph 1013.6mb -
6:24 9 13 mph 1013.6mb -
6:18 8 13 mph 1013.5mb -
6:12 9 13 mph 1013.3mb -
6:06 8 13 mph 1013.3mb -
6:00  -  mph - 57f
5:54  -  mph - 57f
5:48  -  mph 1013.2mb 57f
5:42  -  mph 1013.2mb 57f
5:36  -  mph 1013.1mb 57f
5:30 7 9 mph 1013mb 57f
5:24 8 13 mph 1013mb 57f
5:12 9 13 mph 1013mb 57f
5:06 8 11 mph 1013mb 58f
5:00 9 14 mph 1013mb 58f
4:54 9 14 mph 1013mb 58f
4:48 9 14 mph 1013mb 58f
4:42 9 14 mph 1012.9mb 59f
4:36 9 14 mph 1012.8mb 59f
4:30 9 13 mph 1012.7mb 59f
4:24 10 16 mph 1012.7mb 59f
4:18 9 13 mph 1012.7mb 59f
4:12 10 14 mph 1012.6mb 59f
4:06 10 15 mph 1012.6mb 59f
4:00 9 14 mph 1012.6mb 59f
3:54 10 15 mph 1012.5mb 59f
3:48 10 15 mph 1012.7mb 59f
3:42 10 15 mph 1012.7mb 59f
3:36 9 14 mph 1012.7mb 59f
3:30 10 15 mph 1012.7mb 59f
3:24 10 14 mph 1012.7mb 59f
3:18 9 14 mph 1012.7mb 59f
3:12 10 14 mph 1012.7mb 59f
3:06 9 14 mph 1012.6mb 59f
3:00 9 15 mph 1012.5mb 59f
2:54 10 14 mph 1012.6mb 59f
2:48 9 13 mph 1012.6mb 59f
2:42 8 14 mph 1012.7mb 59f
2:36 10 14 mph 1012.7mb 59f
2:30 9 13 mph 1012.6mb 59f
2:24 10 15 mph 1012.6mb 58f
2:18 11 16 mph 1012.6mb 58f
2:12 11 16 mph 1012.3mb 59f
2:06 11 16 mph 1012.3mb 58f
2:00 11 16 mph 1012.3mb 58f
1:54 11 16 mph 1012.4mb 58f
1:48 13 16 mph 1012.4mb 58f
1:42 11 14 mph 1012.4mb 58f
1:36 13 16 mph 1012.3mb 58f
1:30 13 17 mph 1012.2mb 58f
1:24 15 18 mph 1012.2mb 58f
1:18 13 18 mph 1012.3mb 58f
1:12 14 17 mph 1012.3mb 58f
1:06 14 17 mph 1012.4mb 58f
1:00 13 17 mph 1012.4mb 58f
12:54 11 15 mph 1012.5mb 59f
12:48 10 14 mph 1012.5mb 58f
12:42 9 13 mph 1012.7mb 58f
12:36 9 13 mph 1012.6mb 58f
12:30 9 15 mph 1012.6mb 58f
12:24 9 13 mph 1012.7mb 58f
12:18 10 14 mph 1012.6mb 58f
12:12 10 15 mph 1012.6mb 57f
12:06 10 15 mph 1012.6mb 57f
12:00 9 13 mph 1012.6mb 58f
11:54 11 14 mph 1012.6mb 57f
11:48 10 16 mph 1012.6mb 57f
11:42 10 13 mph 1012.6mb 57f
11:36 11 15 mph 1012.4mb 57f
11:30 11 16 mph 1012.4mb 57f
11:24 10 15 mph 1012.3mb 57f
11:18 13 17 mph 1012.3mb 57f
11:12 11 15 mph 1012.2mb 57f
11:06 13 18 mph 1012.2mb 56f
11:00 13 16 mph 1012.3mb 56f
10:54 13 18 mph 1012.3mb 56f
10:48 13 17 mph 1012.3mb 56f
10:42 13 17 mph 1012.4mb 56f
10:36 14 17 mph 1012.3mb 56f
10:30 13 16 mph 1012.2mb 56f
10:24 14 20 mph 1012.1mb 56f
10:18 15 20 mph 1012mb 56f
10:12 13 16 mph 1011.9mb 56f
10:06 15 20 mph 1012mb 56f
10:00 15 20 mph 1011.9mb 56f
9:54 14 18 mph 1012mb 56f
9:48 14 18 mph - 56f
9:42 17 21 mph - 55f
9:36 15 20 mph - 55f
9:30 14 18 mph 1012mb 55f
9:24 15 17 mph 1012mb 55f
9:18 16 21 mph 1012mb 55f
9:12 14 20 mph 1012mb 55f
9:06 14 18 mph 1012mb 55f
9:00 14 20 mph 1012.1mb 55f
8:54 15 20 mph 1012mb 55f
8:48 16 21 mph 1011.9mb 55f
8:42 15 21 mph 1011.9mb 55f
8:36 15 21 mph 1011.8mb 55f
8:30 15 20 mph 1011.9mb 55f
8:24 16 21 mph 1011.9mb 55f
8:18 16 22 mph 1012mb 55f
8:12 15 20 mph 1011.9mb 55f
8:06 13 17 mph 1011.9mb 55f
8:00 14 16 mph 1011.9mb 55f
7:54 11 15 mph 1012mb 55f
7:48 11 17 mph 1011.9mb 55f
7:42 13 16 mph 1011.9mb 55f
7:36 15 20 mph 1011.7mb 55f
7:30 15 20 mph 1011.6mb 55f
7:24 17 22 mph 1011.6mb 55f
7:18 16 22 mph 1011.7mb 56f
7:12 15 20 mph 1011.7mb 55f
7:06 15 20 mph 1011.7mb 55f
7:00 16 20 mph 1011.7mb 55f
6:54 16 22 mph 1011.7mb 56f
6:48 15 20 mph 1011.6mb 55f
6:42 15 22 mph 1011.4mb 56f
6:36 17 22 mph 1011.4mb 55f
6:30 17 22 mph 1011.6mb 55f
6:24 14 20 mph 1011.7mb 56f
6:18 13 17 mph 1011.7mb 56f
6:12 11 15 mph 1011.8mb 56f
6:06 14 17 mph 1011.8mb 56f
6:00 15 20 mph 1011.8mb 56f
5:54 16 22 mph 1011.9mb 56f
5:48 17 22 mph 1011.7mb 56f
5:42 18 23 mph 1011.7mb 56f
5:36 17 22 mph 1011.7mb 56f
5:30 17 22 mph 1011.6mb 56f
5:24 18 24 mph 1011.6mb 56f
5:18 18 25 mph 1011.6mb 56f
5:12 16 24 mph 1011.6mb 56f
5:06 13 17 mph 1011.6mb 56f
5:00 14 18 mph 1011.6mb 56f
4:54 14 21 mph 1011.5mb 56f
4:48 13 17 mph 1011.6mb 56f
4:42 14 18 mph 1011.6mb 56f
4:36 13 17 mph 1011.6mb 56f
4:30 13 17 mph 1011.8mb 56f
4:24 10 14 mph 1011.9mb 56f
4:18 11 18 mph 1011.8mb 56f
4:12 10 14 mph 1011.8mb 56f
4:06 10 15 mph 1011.7mb 57f
4:00 13 20 mph 1011.6mb 57f
3:54 14 20 mph 1011.5mb 57f
3:48 13 18 mph 1011.5mb 57f
3:42 14 18 mph 1011.4mb 57f
3:36 11 16 mph 1011.6mb 57f
3:30 14 20 mph 1011.6mb 57f
3:24 13 18 mph 1011.2mb 58f
3:18 11 17 mph 1011.6mb 58f
3:12 13 16 mph 1011.4mb 58f
3:06 11 15 mph 1011.4mb 58f
3:00 11 16 mph 1011.3mb 58f
2:54 14 20 mph 1011.2mb 58f
2:48 13 16 mph 1011.2mb 58f
2:42 13 17 mph 1011.3mb 59f
2:36 11 16 mph 1011.4mb 59f
2:30 11 16 mph 1011.7mb 59f
2:24 10 15 mph 1011.8mb 60f
2:18 10 14 mph 1011.7mb 60f
2:12 9 14 mph 1011.9mb 60f
2:06 8 10 mph 1011.9mb 59f
2:00 9 13 mph 1011.9mb 60f
1:54 9 13 mph 1011.9mb 60f
1:48  -  mph 1011.9mb 61f
1:42  -  mph 1012.1mb 61f
1:36  -  mph 1012.1mb 61f
1:30 11 14 mph 1012.1mb 61f
1:24 9 13 mph 1012.2mb 61f
1:18 9 13 mph 1012.1mb 61f
1:12 9 14 mph 1012mb 62f
1:06 9 13 mph 1012mb 61f
1:00 8 11 mph 1012.1mb 61f
12:54 8 11 mph 1012.2mb 62f
12:48 8 13 mph 1012.4mb 62f
12:42 8 13 mph 1012.3mb 62f
12:36 9 13 mph 1012.3mb 62f
12:30 9 13 mph 1012.3mb 62f
12:24 10 13 mph 1012.4mb 62f
12:18 8 11 mph 1012.5mb 63f
12:12 8 11 mph 1012.5mb 62f
12:06 7 10 mph 1012.5mb 62f
12:00 5 7 mph 1012.6mb 62f
lun 05/23 11:54 3 6 mph 1012.6mb 62f
11:48 2 3 mph 1012.7mb 61f
11:42 2 3 mph 1012.8mb 61f
11:36 2 3 mph 1012.8mb 61f
11:30 3
mph
1012.9mb 61f
11:24 1 3 mph 1012.9mb 61f
11:18  -  mph 1013mb 61f
11:12  -  mph 1013mb 61f
11:06  -  mph 1013mb 61f
11:00  -  mph 1013mb 61f
10:54  -  mph 1013mb 61f
10:48  -  mph 1012.9mb -
10:42  -  mph 1012.8mb -
10:36  -  mph 1012.9mb -
10:30  -  1 mph 1012.7mb 62f
10:24  -  1 mph 1012.7mb 62f
10:18  -  1 mph 1012.8mb -
10:12 1 2 mph 1012.9mb -
10:06 2 3 mph 1012.8mb -
10:00 1 3 mph 1012.8mb 63f
9:54 3 8 mph 1012.8mb 63f
9:48 2 5 mph - -
9:42 3 6 mph - -
9:36 2 5 mph - -
9:30 3 5 mph - -
9:24 1 2 mph - -
9:18  -  1 mph - -
9:12  -  3 mph - -
9:06 1 3 mph - -
9:00  -  mph - 64f
8:54  -  mph - 64f
8:48 3 7 mph 1012.1mb -
8:42 1 3 mph 1012.1mb -
8:36 3 6 mph 1012.1mb -
8:30  -  mph 1012.1mb -
8:24  -  mph 1012mb -
8:18 3 6 mph - -
8:12 5 7 mph - -
8:06 3 7 mph - -
8:00 7 10 mph 1012mb 66f
7:54 9 14 mph 1012mb 66f
7:48  -  mph 1012.1mb -
7:42  -  mph 1012mb -
7:36  -  mph 1012.2mb -
7:30  -  mph 1012.2mb -
7:24  -  mph 1012.3mb -
7:18  -  mph 1012.3mb -
7:12  -  mph 1012.3mb -
7:06  -  mph 1012.3mb -
7:00  -  mph 1012.2mb -
6:54  -  mph 1012.1mb -
6:48  -  mph 1012.1mb -
6:42  -  mph 1011.7mb -
6:36  -  mph 1011.6mb -
6:30 10 15 mph 1011.5mb 69f
6:24 13 17 mph 1011.5mb 69f
6:18 13 15 mph 1011.5mb 69f
6:12  -  mph 1011.6mb -
6:06  -  mph 1011.6mb -
6:00  -  mph 1011.4mb 70f
5:54  -  mph 1011.5mb 71f
5:48  -  mph 1011.5mb -
5:42  -  mph 1011.5mb -
5:36  -  mph 1011.6mb -
5:30 10 14 mph 1011.6mb 70f
5:24 10 16 mph 1011.6mb 71f
5:18 10 13 mph 1011.6mb 71f
5:12 10 15 mph 1011.5mb 71f
5:06 9 13 mph 1011.5mb 71f
5:00 9 13 mph 1011.5mb 71f
4:54 9 13 mph 1011.5mb 72f
4:48 5 6 mph 1011.5mb 72f
4:42 8 10 mph 1011.6mb 74f
4:36 8 13 mph 1011.6mb 73f
4:30 7 10 mph 1011.7mb 73f
4:24 9 14 mph 1011.8mb 72f
4:18 10 17 mph 1011.8mb 74f
4:12 9 11 mph 1011.9mb 73f
4:06 11 16 mph 1011.8mb 74f
4:00 13 16 mph 1011.8mb 74f
3:54 11 15 mph 1011.8mb 74f
3:48 10 14 mph 1011.9mb 73f
3:42 9 11 mph 1012mb 73f
3:36 11 15 mph 1012mb 72f
3:30 11 16 mph 1012mb 72f
3:24 13 17 mph 1012.1mb 73f
3:18 13 17 mph 1012.1mb 72f
3:12 11 14 mph 1012mb 73f
3:06 10 15 mph 1012.1mb 73f
3:00 8 13 mph 1012.2mb 75f
2:54 9 13 mph 1012.2mb 76f
2:48 9 15 mph 1012.2mb 74f
2:42 8 10 mph 1012.2mb 74f
2:36 6 7 mph 1012.2mb 75f
2:30 7 10 mph 1012.2mb 75f
2:24 11 16 mph 1012.1mb 74f
2:18 7 10 mph 1012.1mb 74f
2:12 9 16 mph 1012.2mb 73f
2:06 9 11 mph 1012.3mb 75f
2:00 8 11 mph 1012.3mb -
1:54 5 7 mph 1012.3mb -
1:48  -  mph - 74f
1:42  -  mph - 73f
1:36  -  mph - 73f
1:30 1 3 mph 1012.3mb 73f
1:24 2 3 mph 1012.3mb 74f
1:18 1 2 mph 1012.5mb 73f
1:12 2 3 mph 1012.6mb 73f
1:06 2 3 mph 1012.7mb 73f
1:00 1 2 mph 1012.7mb 73f
12:54 2 3 mph 1012.7mb 73f
12:48 3 6 mph 1012.9mb 72f
12:42 1 5 mph 1012.9mb 73f
12:36 3 6 mph 1012.9mb 72f
12:30 3 6 mph 1012.8mb 72f
12:24 6 8 mph 1012.8mb 72f
12:18 5 7 mph 1012.8mb 71f
12:12 3 5 mph 1012.8mb 72f
12:06 5 7 mph 1012.8mb 72f
12:00 3 7 mph 1012.8mb 72f
11:54 3 7 mph 1012.9mb 71f
11:48 2 5 mph 1013mb 71f
11:42 5 8 mph 1013mb 70f
11:36 6 8 mph 1013mb 70f
11:30 6 8 mph 1013.1mb 67f
11:24 5 6 mph 1013.2mb 67f
11:18 6 7 mph 1013.3mb 66f
11:12 7 8 mph 1013.2mb 66f
11:06 7 8 mph 1013.3mb 65f
11:00 5 6 mph 1013.4mb 66f
10:54 5 7 mph 1013.4mb 67f
10:48 6 7 mph 1013.5mb 66f
10:42 7 8 mph 1013.5mb 65f
10:36 6 7 mph 1013.5mb 65f
10:30 3 7 mph 1013.5mb 65f
10:24 6 7 mph 1013.5mb 64f
10:18 5 6 mph 1013.6mb 64f
10:12 3 5 mph 1013.7mb 64f
10:06 3 5 mph 1013.9mb 65f
10:00 3 5 mph 1013.9mb 65f
9:54 3 5 mph 1013.9mb 64f
9:48 2
mph
1014mb 63f
9:42  -  2 mph 1014mb 62f
9:36 2 3 mph 1014mb 60f
9:30 2 3 mph 1014mb 60f
9:24 1 2 mph 1014mb 61f
9:18 2
mph
1014.1mb 59f
9:12 2 3 mph 1014.1mb 60f
9:06 1 2 mph 1014.1mb 60f
9:00 1 2 mph 1014.1mb 60f
8:54 1 2 mph 1014.1mb 60f
8:48 1 2 mph 1014mb 60f
8:42 1 2 mph 1014mb 59f
8:36 1 2 mph 1014mb 59f
8:30 2
mph
1014mb 59f
8:24 2
mph
1014.1mb 58f
8:18  -  2 mph 1014.2mb 59f
8:12  -  mph 1014.2mb 58f
8:06 1 2 mph 1014.1mb 57f
8:00  -  1 mph 1014mb 57f
7:54  -  1 mph 1013.9mb 57f
7:48 1 2 mph 1013.8mb 57f
7:42  -  1 mph 1013.9mb 56f
7:36  -  1 mph 1013.9mb 56f
7:30  -  2 mph 1014mb 56f
7:24 1 2 mph 1013.9mb 56f
7:18 2 3 mph 1014mb 56f
7:12 3
mph
1014mb 56f
7:06 2 3 mph 1013.9mb 56f
7:00 1 3 mph 1014mb 56f
6:54  -  2 mph 1013.8mb 56f
6:48 2 5 mph 1013.7mb 55f
6:42 3 5 mph 1013.6mb 56f
6:36 3 5 mph 1013.4mb 55f
6:30 3 6 mph 1013.2mb 54f
6:24 3 5 mph 1013.1mb 54f
6:18 3 5 mph 1013.1mb 53f
6:12 2 3 mph 1013.2mb 53f
6:06 1 3 mph 1013.2mb 53f
6:00 2 3 mph 1013.2mb 53f
5:54 2 3 mph 1013.3mb 52f
5:48 2 3 mph 1013.3mb 52f
5:42 3 5 mph 1013.3mb 52f
5:36 2 5 mph 1013.4mb 53f
5:30 3 5 mph 1013.4mb 52f
5:24 3 5 mph 1013.4mb 52f
5:18 3 5 mph 1013.4mb 52f
5:12 2 3 mph 1013.4mb 52f
5:06 2 3 mph 1013.4mb 52f
5:00 2 3 mph 1013.3mb 52f
4:54 2
mph
1013.3mb 50f
4:48 2
mph
1013.2mb 50f
4:42 1 2 mph 1013.2mb 51f
4:36  -  1 mph 1013.1mb 52f
4:30 1 2 mph 1013mb 52f
4:24 2 3 mph 1012.9mb 52f
4:18 3
mph
1012.8mb 52f
4:12  -  2 mph 1012.8mb 52f
4:06  -  1 mph 1012.8mb 52f
4:00  -  1 mph 1012.9mb 52f
3:54  -  1 mph 1012.7mb 52f
3:48  -  mph 1012.7mb 52f
3:42  -  1 mph 1012.7mb 52f
3:36 1 2 mph 1012.6mb 52f
3:30 1
mph
1012.6mb 52f
3:24 2
mph
1012.6mb 52f
3:18 1 2 mph 1012.6mb 52f
3:12  -  2 mph 1012.6mb 52f
3:06 2 3 mph 1012.6mb 53f
3:00 2 3 mph 1012.5mb 53f
2:54 2 3 mph 1012.5mb 53f
2:48 3
mph
1012.4mb 53f
2:42 2 3 mph 1012.5mb 53f
2:36 2 3 mph 1012.6mb 53f
2:30 2
mph
1012.7mb 52f
2:24 2 3 mph 1012.7mb 53f
2:18 2 3 mph 1012.8mb 52f
2:12 2 5 mph 1012.9mb 53f
2:06 2 3 mph 1013mb 52f
2:00 2
mph
1013.1mb 51f
1:54 1 2 mph 1013.2mb 53f
1:48  -  mph 1013.1mb 51f
1:42  -  mph 1013mb 52f
1:36  -  mph 1013.2mb 53f
1:30 3 5 mph 1013.2mb 53f
1:24 1 2 mph 1013.2mb 52f
1:18  -  1 mph 1013.3mb 53f
1:12  -  2 mph 1013.3mb 53f
1:06 2 5 mph 1013.4mb 53f
1:00 5 7 mph 1013.3mb 53f
12:54 5 8 mph 1013.2mb 54f
12:48 2 5 mph 1013mb 54f
12:42 2 3 mph 1012.9mb 55f
12:36  -  1 mph 1012.8mb 54f
12:30 1 2 mph 1012.7mb 55f
12:24 2 3 mph 1012.7mb 55f
12:18 2 3 mph 1012.7mb 55f
12:12 3 5 mph 1012.6mb 54f
12:06 2 3 mph 1012.6mb 54f
12:00 2
mph
1012.7mb 55f
dom 05/22 11:54 1 2 mph 1012.7mb 54f
11:48 2
mph
1012.7mb 54f
11:42 2
mph
1012.7mb 54f
11:36 2
mph
1012.8mb 53f
11:30 2
mph
1012.9mb 53f
11:24 2 3 mph 1012.9mb 54f
11:18  -  mph 1012.9mb 52f
11:12  -  mph 1012.9mb 52f
11:06  -  mph 1012.9mb 55f
11:00  -  mph 1013.1mb -
10:54  -  mph 1013mb -
10:48 2
mph
1013mb -
10:42 2
mph
1013mb -
10:36 1
mph
1013mb -
10:30 1 2 mph 1013.1mb -
10:24 2
mph
1013mb -
10:18  -  mph 1013mb -
10:12  -  mph 1013mb -
10:06  -  mph 1012.9mb -
10:00  -  1 mph 1012.9mb 56f
9:54  -  1 mph 1012.8mb 56f
9:48  -  1 mph 1012.6mb -
9:42 2 5 mph 1012.5mb -
9:36 2 5 mph 1012.5mb -
9:30 2 5 mph 1012.4mb 58f
9:24 2 3 mph 1012.3mb 57f
9:18  -  mph 1012.3mb 57f
9:12  -  mph 1012.3mb 57f
9:06  -  mph 1012.3mb 57f
9:00 2 5 mph 1012.2mb 57f
8:54 5 6 mph 1012.1mb 58f
8:48 5 6 mph 1011.9mb -
8:42 5 6 mph 1011.8mb -
8:36 5 6 mph 1011.7mb -
8:30  -  mph 1011.7mb -
8:24  -  mph 1011.7mb -
8:18 5 6 mph - -
8:12 5
mph
- -
8:06 5 6 mph - -
8:00  -  mph 1011.4mb -
7:54  -  mph 1011.4mb -
7:48  -  mph 1011.3mb -
7:42  -  mph 1011.2mb -
7:36  -  mph 1011mb -
7:30  -  mph 1011mb -
7:24  -  mph 1011mb -
7:18  -  mph 1010.8mb 62f
7:12  -  mph 1010.7mb 62f
7:06  -  mph 1010.6mb 63f
7:00  -  mph 1010.6mb 63f
6:54  -  mph 1010.4mb 63f
6:48 11 15 mph - -
6:42 11 14 mph - -
6:36 10 15 mph - -
6:30 10 14 mph - -
6:24 10 14 mph - -
6:18 9 15 mph - -
6:12 9 14 mph - -
6:06 8 10 mph - -
6:00 7 9 mph - -
5:54 7 9 mph - -
5:48  -  mph 1010.4mb 65f
5:42  -  mph 1010.1mb 65f
5:36  -  mph 1010mb 65f
5:30 8 11 mph 1010mb 65f
5:24 9 13 mph 1010mb 65f
5:18 10 11 mph 1009.8mb 65f
5:12 9 11 mph 1009.9mb 65f
5:06 9 11 mph 1009.9mb 65f
5:00 11 15 mph 1009.8mb 66f
4:54 11 14 mph 1009.8mb 65f
4:48 11 15 mph 1009.7mb 66f
4:42 11 15 mph 1009.5mb 66f
4:36 13 16 mph 1009.5mb 65f
4:30 11 16 mph 1009.5mb 65f
4:24 11 15 mph 1009.6mb 66f
4:18 11 16 mph 1009.6mb 66f
4:12 10 15 mph 1009.7mb 67f
4:06 10 14 mph 1009.7mb 66f
4:00 10 15 mph 1009.7mb 66f
3:54 13 16 mph 1009.7mb 65f
3:48 13 18 mph 1009.7mb 66f
3:42 10 14 mph 1009.7mb 66f
3:36 14 16 mph 1009.7mb 66f
3:30 13 16 mph 1009.7mb 65f
3:24 14 18 mph 1009.6mb 65f
3:18 14 17 mph 1009.6mb 65f
3:12 14 20 mph 1009.5mb 66f
3:06 13 17 mph 1009.6mb 66f
3:00 13 17 mph 1009.6mb 66f
2:54 13 16 mph 1009.7mb 65f
2:48 13 18 mph 1009.6mb 65f
2:42 14 17 mph 1009.7mb 66f
2:36 13 18 mph 1009.8mb 66f
2:30 11 15 mph 1009.8mb 66f
2:24 15 18 mph 1009.6mb 67f
2:18 13 17 mph 1009.6mb 67f
2:12 15 20 mph 1009.6mb 66f
2:06 13 18 mph 1009.5mb 67f
2:00 9 15 mph 1009.5mb 66f
1:54 13 18 mph 1009.4mb 66f
1:48 10 17 mph 1009.3mb 66f
1:42 10 17 mph 1009.2mb 65f
1:36 9 16 mph 1009.2mb 65f
1:30 9 14 mph 1009.2mb 65f
1:24 13 18 mph 1009.2mb 65f
1:18 13 18 mph 1009.2mb 65f
1:12 13 17 mph 1009.1mb 66f
1:06 15 20 mph 1009.2mb 66f
1:00 13 16 mph 1009.3mb 64f
12:54 15 18 mph 1009.4mb 65f
12:48 14 20 mph 1009.4mb 64f
12:42 11 15 mph 1009.5mb 65f
12:36 13 16 mph 1009.6mb 65f
12:30 13 17 mph 1009.6mb 64f
12:24 13 16 mph 1009.6mb 64f
12:18 10 15 mph 1009.6mb 64f
12:12 11 15 mph 1009.7mb 63f
12:06 13 16 mph 1009.8mb 63f
12:00 13 15 mph 1009.8mb 63f
11:54 9 11 mph 1009.8mb 63f
11:48 10 14 mph 1009.9mb 63f
11:42 10 14 mph 1009.9mb 64f
11:36 9 10 mph 1009.9mb 63f
11:30 10 14 mph 1009.9mb 63f
11:24 10 13 mph 1010mb 62f
11:18 9 11 mph 1010mb 63f
11:12 9 14 mph 1010mb 63f
11:06 10 14 mph 1010.1mb 63f
11:00 10 15 mph 1010.2mb 62f